Itanhem, Brazil
Current Conditions -  °F | °C
As of 5:00 PM on Wednesday 26 Nov 2014 (Local Time) from SBPS Reporting Station
Few Clouds Few Clouds  
Wind Chill: 81°   Ceiling: Unl
Heat Index: 84°   Visibility: 6mi
Dew Point: 70°   Wind: 17mph
Humidity: 70%   Direction: 60°ENE
Pressure: 29.91"   Gusts: NA
Location:  17.17°S, 40.33°W
Report Text: SBPS 262000Z 06015KT 020V080 9999 FEW020 27/21 Q1013
Loading
Personal Weather Stations






























Interactive Weather Map New forecast layout! Learn more

10-Day Weather Forecast

Advertisements
Track Severe Weather on mobile